Time,TemperatureF,DewpointF,PressureIn,WindDirection,WindDirectionDegrees,WindSpeedMPH,WindSpeedGustMPH,Humidity,HourlyPrecipIn,Conditions,Clouds,dailyrainin,SoftwareType,DateUTC
2013-03-31 00:03:00,67.9,62.0,29.87,SE,142,0.0,-999.0,80,-99.99,,,0.80,weatherlink.com 1.10,2013-03-31 05:03:00,
2013-03-31 00:18:00,67.9,62.0,29.86,SE,128,0.0,-999.0,80,-99.99,,,0.80,weatherlink.com 1.10,2013-03-31 05:18:00,
2013-03-31 00:33:00,67.9,61.0,29.86,ESE,105,0.0,-999.0,79,-99.99,,,0.80,weatherlink.com 1.10,2013-03-31 05:33:00,
2013-03-31 00:48:00,67.5,61.0,29.86,SE,136,0.0,-999.0,79,-99.99,,,0.00,weatherlink.com 1.10,2013-03-31 05:48:00,
2013-03-31 01:03:00,67.2,61.0,29.86,ESE,114,0.0,-999.0,80,-99.99,,,0.00,weatherlink.com 1.10,2013-03-31 06:03:00,
2013-03-31 01:18:00,66.7,60.0,29.85,East,96,0.0,-999.0,80,-99.99,,,0.00,weatherlink.com 1.10,2013-03-31 06:18:00,
2013-03-31 01:33:00,66.3,60.0,29.85,SE,142,0.0,-999.0,81,-99.99,,,0.00,weatherlink.com 1.10,2013-03-31 06:33:00,
2013-03-31 01:48:00,66.0,60.0,29.85,SE,142,0.0,-999.0,81,-99.99,,,0.00,weatherlink.com 1.10,2013-03-31 06:48:00,
2013-03-31 02:03:00,65.6,60.0,29.85,SE,141,0.0,-999.0,82,-99.99,,,0.00,weatherlink.com 1.10,2013-03-31 07:03:00,
2013-03-31 02:18:00,65.4,60.0,29.85,SE,145,0.0,-999.0,82,-99.99,,,0.00,weatherlink.com 1.10,2013-03-31 07:18:00,
2013-03-31 02:48:00,65.1,60.0,29.85,SE,142,0.0,-999.0,83,-99.99,,,0.00,weatherlink.com 1.10,2013-03-31 07:48:00,
2013-03-31 03:03:00,65.1,60.0,29.85,ESE,108,0.0,-999.0,83,-99.99,,,0.00,weatherlink.com 1.10,2013-03-31 08:03:00,
2013-03-31 03:18:00,64.8,60.0,29.84,ESE,109,0.0,-999.0,83,-99.99,,,0.00,weatherlink.com 1.10,2013-03-31 08:18:00,
2013-03-31 03:33:00,64.5,60.0,29.83,SE,136,0.0,-999.0,84,-99.99,,,0.00,weatherlink.com 1.10,2013-03-31 08:33:00,
2013-03-31 03:48:00,64.3,60.0,29.83,SE,136,0.0,-999.0,85,-99.99,,,0.00,weatherlink.com 1.10,2013-03-31 08:48:00,
2013-03-31 04:03:00,64.0,60.0,29.82,SSW,207,0.0,-999.0,86,-99.99,,,0.00,weatherlink.com 1.10,2013-03-31 09:03:00,
2013-03-31 04:18:00,63.9,60.0,29.82,SE,128,0.0,-999.0,86,-99.99,,,0.00,weatherlink.com 1.10,2013-03-31 09:18:00,
2013-03-31 04:33:00,63.6,60.0,29.81,SE,136,0.0,-999.0,87,-99.99,,,0.00,weatherlink.com 1.10,2013-03-31 09:33:00,
2013-03-31 04:48:00,63.4,60.0,29.80,SE,140,0.0,-999.0,88,-99.99,,,0.00,weatherlink.com 1.10,2013-03-31 09:48:00,
2013-03-31 05:03:00,63.2,60.0,29.80,SE,140,0.0,-999.0,89,-99.99,,,0.00,weatherlink.com 1.10,2013-03-31 10:03:00,
2013-03-31 05:18:00,63.1,60.0,29.80,ESE,119,0.0,-999.0,89,-99.99,,,0.00,weatherlink.com 1.10,2013-03-31 10:18:00,
2013-03-31 05:33:00,63.1,60.0,29.80,SSE,155,0.0,-999.0,90,-99.99,,,0.00,weatherlink.com 1.10,2013-03-31 10:33:00,
2013-03-31 05:48:00,62.9,60.0,29.79,SE,136,0.0,-999.0,91,-99.99,,,0.00,weatherlink.com 1.10,2013-03-31 10:48:00,
2013-03-31 06:03:00,63.0,60.0,29.79,SW,236,0.0,-999.0,91,-99.99,,,0.00,weatherlink.com 1.10,2013-03-31 11:03:00,
2013-03-31 06:19:00,63.0,61.0,29.78,South,178,0.0,-999.0,92,-99.99,,,0.00,weatherlink.com 1.10,2013-03-31 11:19:00,
2013-03-31 06:33:00,63.4,61.0,29.79,SSW,203,0.0,-999.0,92,-99.99,,,0.00,weatherlink.com 1.10,2013-03-31 11:33:00,
2013-03-31 06:48:00,64.0,62.0,29.78,SE,133,0.0,-999.0,92,-99.99,,,0.00,weatherlink.com 1.10,2013-03-31 11:48:00,
2013-03-31 07:03:00,64.5,62.0,29.77,WSW,256,0.0,-999.0,92,-99.99,,,0.00,weatherlink.com 1.10,2013-03-31 12:03:00,
2013-03-31 07:18:00,64.9,62.0,29.77,East,90,0.0,-999.0,91,-99.99,,,0.00,weatherlink.com 1.10,2013-03-31 12:18:00,
2013-03-31 07:33:00,65.2,62.0,29.77,SW,215,0.0,-999.0,90,-99.99,,,0.00,weatherlink.com 1.10,2013-03-31 12:33:00,
2013-03-31 07:48:00,65.5,63.0,29.80,SW,229,0.0,-999.0,90,-99.99,,,0.00,weatherlink.com 1.10,2013-03-31 12:48:00,
2013-03-31 08:03:00,66.0,63.0,29.87,WSW,253,9.0,-999.0,89,-99.99,,,0.00,weatherlink.com 1.10,2013-03-31 13:03:00,
2013-03-31 08:18:00,62.6,58.0,29.91,SW,218,2.0,-999.0,86,-99.99,,,0.02,weatherlink.com 1.10,2013-03-31 13:18:00,
2013-03-31 08:34:00,60.7,58.0,29.91,ESE,123,4.0,-999.0,89,-99.99,,,0.06,weatherlink.com 1.10,2013-03-31 13:34:00,
2013-03-31 08:49:00,60.3,58.0,29.92,East,100,4.0,-999.0,91,-99.99,,,0.06,weatherlink.com 1.10,2013-03-31 13:49:00,
2013-03-31 09:04:00,59.8,57.0,29.91,ESE,117,4.0,-999.0,91,-99.99,,,0.06,weatherlink.com 1.10,2013-03-31 14:04:00,
2013-03-31 09:19:00,60.2,57.0,29.91,ENE,59,11.0,-999.0,90,-99.99,,,0.06,weatherlink.com 1.10,2013-03-31 14:19:00,
2013-03-31 09:34:00,60.7,57.0,29.93,ESE,111,4.0,-999.0,88,-99.99,,,0.06,weatherlink.com 1.10,2013-03-31 14:34:00,
2013-03-31 09:49:00,61.1,57.0,29.92,East,88,2.0,-999.0,86,-99.99,,,0.06,weatherlink.com 1.10,2013-03-31 14:49:00,
2013-03-31 10:04:00,62.0,58.0,29.93,ESE,105,4.0,-999.0,85,-99.99,,,0.06,weatherlink.com 1.10,2013-03-31 15:04:00,
2013-03-31 10:19:00,61.6,56.0,29.94,West,268,0.0,-999.0,83,-99.99,,,0.06,weatherlink.com 1.10,2013-03-31 15:19:00,
2013-03-31 10:34:00,61.6,56.0,29.95,East,91,0.0,-999.0,83,-99.99,,,0.06,weatherlink.com 1.10,2013-03-31 15:34:00,
2013-03-31 10:49:00,61.4,57.0,29.95,East,88,0.0,-999.0,84,-99.99,,,0.06,weatherlink.com 1.10,2013-03-31 15:49:00,
2013-03-31 11:04:00,62.6,57.0,29.94,East,80,0.0,-999.0,82,-99.99,,,0.06,weatherlink.com 1.10,2013-03-31 16:04:00,
2013-03-31 11:19:00,63.1,57.0,29.94,ENE,57,3.0,-999.0,80,-99.99,,,0.06,weatherlink.com 1.10,2013-03-31 16:19:00,
2013-03-31 11:34:00,63.5,57.0,29.94,ENE,72,3.0,-999.0,78,-99.99,,,0.06,weatherlink.com 1.10,2013-03-31 16:34:00,
2013-03-31 11:49:00,64.8,57.0,29.95,ENE,62,0.0,-999.0,76,-99.99,,,0.06,weatherlink.com 1.10,2013-03-31 16:49:00,
2013-03-31 12:04:00,64.9,57.0,29.95,East,89,5.0,-999.0,76,-99.99,,,0.06,weatherlink.com 1.10,2013-03-31 17:04:00,
2013-03-31 12:19:00,65.7,57.0,29.96,East,88,1.0,-999.0,74,-99.99,,,0.06,weatherlink.com 1.10,2013-03-31 17:19:00,
2013-03-31 12:34:00,66.7,58.0,29.96,NW,306,0.0,-999.0,73,-99.99,,,0.06,weatherlink.com 1.10,2013-03-31 17:34:00,
2013-03-31 12:49:00,66.7,57.0,29.95,ENE,67,4.0,-999.0,72,-99.99,,,0.06,weatherlink.com 1.10,2013-03-31 17:49:00,
2013-03-31 13:04:00,66.9,57.0,29.95,East,86,0.0,-999.0,71,-99.99,,,0.06,weatherlink.com 1.10,2013-03-31 18:04:00,
2013-03-31 13:19:00,67.7,57.0,29.95,ENE,78,0.0,-999.0,69,-99.99,,,0.06,weatherlink.com 1.10,2013-03-31 18:19:00,
2013-03-31 13:34:00,68.3,57.0,29.94,ENE,72,0.0,-999.0,68,-99.99,,,0.06,weatherlink.com 1.10,2013-03-31 18:34:00,
2013-03-31 13:49:00,69.0,57.0,29.94,ENE,63,0.0,-999.0,66,-99.99,,,0.06,weatherlink.com 1.10,2013-03-31 18:49:00,
2013-03-31 14:04:00,70.1,58.0,29.94,ESE,106,0.0,-999.0,65,-99.99,,,0.06,weatherlink.com 1.10,2013-03-31 19:04:00,
2013-03-31 14:19:00,70.3,57.0,29.94,WSW,256,0.0,-999.0,64,-99.99,,,0.06,weatherlink.com 1.10,2013-03-31 19:19:00,
2013-03-31 14:34:00,71.9,58.0,29.94,East,99,0.0,-999.0,61,-99.99,,,0.06,weatherlink.com 1.10,2013-03-31 19:34:00,
2013-03-31 14:49:00,71.6,57.0,29.94,East,83,1.0,-999.0,60,-99.99,,,0.06,weatherlink.com 1.10,2013-03-31 19:49:00,
2013-03-31 15:04:00,72.5,57.0,29.93,ENE,64,0.0,-999.0,58,-99.99,,,0.06,weatherlink.com 1.10,2013-03-31 20:04:00,
2013-03-31 15:19:00,73.0,56.0,29.93,NNW,331,0.0,-999.0,56,-99.99,,,0.06,weatherlink.com 1.10,2013-03-31 20:19:00,
2013-03-31 15:34:00,73.1,55.0,29.92,WNW,287,4.0,-999.0,54,-99.99,,,0.06,weatherlink.com 1.10,2013-03-31 20:34:00,
2013-03-31 15:49:00,74.3,56.0,29.91,WNW,286,4.0,-999.0,53,-99.99,,,0.06,weatherlink.com 1.10,2013-03-31 20:49:00,
2013-03-31 16:04:00,73.5,55.0,29.91,ESE,117,0.0,-999.0,53,-99.99,,,0.06,weatherlink.com 1.10,2013-03-31 21:04:00,
2013-03-31 16:19:00,72.8,54.0,29.90,East,82,2.0,-999.0,52,-99.99,,,0.06,weatherlink.com 1.10,2013-03-31 21:19:00,
2013-03-31 16:34:00,74.4,54.0,29.90,NW,325,1.0,-999.0,50,-99.99,,,0.06,weatherlink.com 1.10,2013-03-31 21:34:00,
2013-03-31 16:49:00,73.8,57.0,29.90,WNW,284,0.0,-999.0,55,-99.99,,,0.06,weatherlink.com 1.10,2013-03-31 21:49:00,
2013-03-31 17:04:00,72.4,56.0,29.89,SW,223,0.0,-999.0,57,-99.99,,,0.06,weatherlink.com 1.10,2013-03-31 22:04:00,
2013-03-31 17:19:00,73.1,56.0,29.89,East,94,0.0,-999.0,56,-99.99,,,0.06,weatherlink.com 1.10,2013-03-31 22:19:00,
2013-03-31 17:34:00,73.8,55.0,29.88,ENE,75,1.0,-999.0,53,-99.99,,,0.06,weatherlink.com 1.10,2013-03-31 22:34:00,
2013-03-31 17:49:00,74.0,56.0,29.88,ENE,65,0.0,-999.0,53,-99.99,,,0.06,weatherlink.com 1.10,2013-03-31 22:49:00,
2013-03-31 18:04:00,73.5,55.0,29.88,East,97,1.0,-999.0,52,-99.99,,,0.06,weatherlink.com 1.10,2013-03-31 23:04:00,
2013-03-31 18:19:00,73.1,54.0,29.89,ENE,68,2.0,-999.0,52,-99.99,,,0.06,weatherlink.com 1.10,2013-03-31 23:19:00,
2013-03-31 18:34:00,72.5,54.0,29.89,ENE,59,0.0,-999.0,52,-99.99,,,0.06,weatherlink.com 1.10,2013-03-31 23:34:00,
2013-03-31 18:49:00,72.5,53.0,29.89,ENE,63,0.0,-999.0,51,-99.99,,,0.06,weatherlink.com 1.10,2013-03-31 23:49:00,
2013-03-31 19:04:00,72.1,52.0,29.89,SSW,201,0.0,-999.0,50,-99.99,,,0.06,weatherlink.com 1.10,2013-04-01 00:04:00,
2013-03-31 19:34:00,70.3,50.0,29.90,SW,219,0.0,-999.0,49,-99.99,,,0.06,weatherlink.com 1.10,2013-04-01 00:34:00,
2013-03-31 19:49:00,69.7,50.0,29.91,South,190,0.0,-999.0,50,-99.99,,,0.06,weatherlink.com 1.10,2013-04-01 00:49:00,
2013-03-31 20:05:00,69.2,49.0,29.91,ENE,75,0.0,-999.0,49,-99.99,,,0.06,weatherlink.com 1.10,2013-04-01 01:05:00,
2013-03-31 20:20:00,68.7,49.0,29.92,ENE,76,0.0,-999.0,50,-99.99,,,0.06,weatherlink.com 1.10,2013-04-01 01:20:00,
2013-03-31 20:35:00,68.2,50.0,29.92,ENE,76,0.0,-999.0,52,-99.99,,,0.06,weatherlink.com 1.10,2013-04-01 01:35:00,
2013-03-31 20:50:00,67.1,50.0,29.92,ENE,76,0.0,-999.0,55,-99.99,,,0.06,weatherlink.com 1.10,2013-04-01 01:50:00,
2013-03-31 21:05:00,66.1,50.0,29.92,ENE,75,0.0,-999.0,57,-99.99,,,0.06,weatherlink.com 1.10,2013-04-01 02:05:00,
2013-03-31 21:20:00,65.4,51.0,29.93,ENE,76,0.0,-999.0,59,-99.99,,,0.06,weatherlink.com 1.10,2013-04-01 02:20:00,
2013-03-31 21:35:00,65.1,51.0,29.93,ENE,75,0.0,-999.0,60,-99.99,,,0.06,weatherlink.com 1.10,2013-04-01 02:35:00,
2013-03-31 21:50:00,64.3,51.0,29.93,ENE,75,0.0,-999.0,62,-99.99,,,0.06,weatherlink.com 1.10,2013-04-01 02:50:00,
2013-03-31 22:05:00,63.9,51.0,29.94,ENE,76,0.0,-999.0,64,-99.99,,,0.06,weatherlink.com 1.10,2013-04-01 03:05:00,
2013-03-31 22:20:00,63.3,51.0,29.94,ENE,76,0.0,-999.0,65,-99.99,,,0.06,weatherlink.com 1.10,2013-04-01 03:20:00,
2013-03-31 22:35:00,62.9,51.0,29.94,ENE,76,0.0,-999.0,66,-99.99,,,0.06,weatherlink.com 1.10,2013-04-01 03:35:00,
2013-03-31 22:50:00,62.1,51.0,29.95,ENE,76,0.0,-999.0,68,-99.99,,,0.06,weatherlink.com 1.10,2013-04-01 03:50:00,
2013-03-31 23:05:00,62.5,51.0,29.95,ENE,75,0.0,-999.0,66,-99.99,,,0.06,weatherlink.com 1.10,2013-04-01 04:05:00,
2013-03-31 23:20:00,62.2,51.0,29.95,ENE,75,0.0,-999.0,68,-99.99,,,0.06,weatherlink.com 1.10,2013-04-01 04:20:00,
2013-03-31 23:35:00,61.8,51.0,29.96,ENE,76,0.0,-999.0,68,-99.99,,,0.06,weatherlink.com 1.10,2013-04-01 04:35:00,
2013-03-31 23:50:00,61.9,51.0,29.96,ENE,76,0.0,-999.0,67,-99.99,,,0.06,weatherlink.com 1.10,2013-04-01 04:50:00,